sensor_id;sensor_type;location;lat;lon;timestamp;pressure;altitude;pressure_sealevel;temperature;humidity
10718;BME280;13513;42.700;23.124;2023-02-14T00:01:32;94255.36;;;1.39;94.35
10718;BME280;13513;42.700;23.124;2023-02-14T00:04:04;94254.87;;;1.48;94.48
10718;BME280;13513;42.700;23.124;2023-02-14T00:06:35;94256.05;;;1.57;94.44
10718;BME280;13513;42.700;23.124;2023-02-14T00:09:09;94256.55;;;1.61;94.92
10718;BME280;13513;42.700;23.124;2023-02-14T00:11:39;94259.50;;;1.74;93.89
10718;BME280;13513;42.700;23.124;2023-02-14T00:14:11;94264.71;;;1.78;94.10
10718;BME280;13513;42.700;23.124;2023-02-14T00:16:59;94260.66;;;1.91;93.81
10718;BME280;13513;42.700;23.124;2023-02-14T00:19:29;94268.78;;;1.84;93.93
10718;BME280;13513;42.700;23.124;2023-02-14T00:22:00;94265.39;;;1.88;94.24
10718;BME280;13513;42.700;23.124;2023-02-14T00:24:32;94261.97;;;1.99;93.23
10718;BME280;13513;42.700;23.124;2023-02-14T00:27:02;94266.55;;;2.05;93.08
10718;BME280;13513;42.700;23.124;2023-02-14T00:29:34;94263.11;;;2.05;93.34
10718;BME280;13513;42.700;23.124;2023-02-14T00:32:05;94271.25;;;2.14;93.23
10718;BME280;13513;42.700;23.124;2023-02-14T00:34:36;94263.42;;;2.14;93.46
10718;BME280;13513;42.700;23.124;2023-02-14T00:37:07;94266.70;;;2.28;92.62
10718;BME280;13513;42.700;23.124;2023-02-14T00:39:38;94262.31;;;2.28;91.57
10718;BME280;13513;42.700;23.124;2023-02-14T00:42:08;94269.78;;;2.27;91.81
10718;BME280;13513;42.700;23.124;2023-02-14T00:44:40;94264.25;;;2.26;91.58
10718;BME280;13513;42.700;23.124;2023-02-14T00:47:11;94261.33;;;2.17;92.61
10718;BME280;13513;42.700;23.124;2023-02-14T00:49:42;94259.36;;;2.23;92.92
10718;BME280;13513;42.700;23.124;2023-02-14T00:52:13;94260.49;;;2.33;92.20
10718;BME280;13513;42.700;23.124;2023-02-14T00:54:44;94260.66;;;2.23;92.74
10718;BME280;13513;42.700;23.124;2023-02-14T00:57:14;94245.37;;;2.24;92.69
10718;BME280;13513;42.700;23.124;2023-02-14T00:59:46;94247.30;;;2.26;92.24
10718;BME280;13513;42.700;23.124;2023-02-14T01:02:17;94235.73;;;2.29;91.47
10718;BME280;13513;42.700;23.124;2023-02-14T01:04:47;94241.93;;;2.24;91.82
10718;BME280;13513;42.700;23.124;2023-02-14T01:07:17;94243.39;;;2.22;92.25
10718;BME280;13513;42.700;23.124;2023-02-14T01:09:49;94236.08;;;2.22;92.72
10718;BME280;13513;42.700;23.124;2023-02-14T01:12:20;94244.70;;;2.18;92.85
10718;BME280;13513;42.700;23.124;2023-02-14T01:14:50;94239.17;;;2.21;92.80
10718;BME280;13513;42.700;23.124;2023-02-14T01:17:22;94228.23;;;2.14;92.97
10718;BME280;13513;42.700;23.124;2023-02-14T01:19:55;94235.42;;;2.16;92.86
10718;BME280;13513;42.700;23.124;2023-02-14T01:22:26;94232.66;;;2.17;92.22
10718;BME280;13513;42.700;23.124;2023-02-14T01:24:57;94229.21;;;2.25;92.14
10718;BME280;13513;42.700;23.124;2023-02-14T01:27:28;94215.20;;;2.14;92.34
10718;BME280;13513;42.700;23.124;2023-02-14T01:29:58;94218.78;;;2.25;91.45
10718;BME280;13513;42.700;23.124;2023-02-14T01:32:31;94222.06;;;2.23;90.84
10718;BME280;13513;42.700;23.124;2023-02-14T01:35:04;94216.17;;;2.25;91.25
10718;BME280;13513;42.700;23.124;2023-02-14T01:37:37;94218.94;;;2.27;90.70
10718;BME280;13513;42.700;23.124;2023-02-14T01:40:10;94220.25;;;2.23;91.08
10718;BME280;13513;42.700;23.124;2023-02-14T01:42:40;94222.38;;;2.28;90.58
10718;BME280;13513;42.700;23.124;2023-02-14T01:45:18;94218.30;;;2.25;90.62
10718;BME280;13513;42.700;23.124;2023-02-14T01:47:51;94211.31;;;2.22;91.13
10718;BME280;13513;42.700;23.124;2023-02-14T01:50:25;94206.58;;;2.25;91.26
10718;BME280;13513;42.700;23.124;2023-02-14T01:52:57;94198.76;;;2.21;91.73
10718;BME280;13513;42.700;23.124;2023-02-14T01:55:30;94189.33;;;2.12;92.01
10718;BME280;13513;42.700;23.124;2023-02-14T01:58:43;94199.25;;;2.13;92.42
10718;BME280;13513;42.700;23.124;2023-02-14T02:00:36;94205.59;;;2.22;91.92
10718;BME280;13513;42.700;23.124;2023-02-14T02:03:31;94198.60;;;2.19;91.79
10718;BME280;13513;42.700;23.124;2023-02-14T02:06:04;94191.91;;;2.28;92.16
10718;BME280;13513;42.700;23.124;2023-02-14T02:08:33;94198.27;;;2.30;91.41
10718;BME280;13513;42.700;23.124;2023-02-14T02:11:04;94187.84;;;2.30;91.17
10718;BME280;13513;42.700;23.124;2023-02-14T02:13:33;94171.73;;;2.06;92.30
10718;BME280;13513;42.700;23.124;2023-02-14T02:23:09;94174.98;;;1.92;93.46
10718;BME280;13513;42.700;23.124;2023-02-14T02:27:30;94178.73;;;1.98;93.12
10718;BME280;13513;42.700;23.124;2023-02-14T02:30:22;94173.36;;;1.99;92.29
10718;BME280;13513;42.700;23.124;2023-02-14T02:44:20;94156.42;;;1.91;92.93
10718;BME280;13513;42.700;23.124;2023-02-14T02:47:12;94146.00;;;1.91;92.57
10718;BME280;13513;42.700;23.124;2023-02-14T02:55:57;94160.19;;;1.81;93.07
10718;BME280;13513;42.700;23.124;2023-02-14T02:58:45;94170.61;;;1.77;93.72
10718;BME280;13513;42.700;23.124;2023-02-14T03:01:19;94164.41;;;1.62;94.77
10718;BME280;13513;42.700;23.124;2023-02-14T03:03:49;94157.23;;;1.60;95.35
10718;BME280;13513;42.700;23.124;2023-02-14T03:06:35;94157.42;;;1.62;94.86
10718;BME280;13513;42.700;23.124;2023-02-14T03:18:38;94154.31;;;1.47;96.35
10718;BME280;13513;42.700;23.124;2023-02-14T03:23:56;94139.16;;;1.38;97.42
10718;BME280;13513;42.700;23.124;2023-02-14T03:26:46;94134.62;;;1.32;97.79
10718;BME280;13513;42.700;23.124;2023-02-14T03:29:24;94128.27;;;1.35;97.99
10718;BME280;13513;42.700;23.124;2023-02-14T03:32:00;94129.88;;;1.28;98.09
10718;BME280;13513;42.700;23.124;2023-02-14T03:34:34;94125.82;;;1.25;98.48
10718;BME280;13513;42.700;23.124;2023-02-14T03:37:15;94125.66;;;1.27;98.50
10718;BME280;13513;42.700;23.124;2023-02-14T03:40:08;94127.94;;;1.26;98.47
10718;BME280;13513;42.700;23.124;2023-02-14T03:42:54;94127.59;;;1.21;98.60
10718;BME280;13513;42.700;23.124;2023-02-14T03:45:17;94126.95;;;1.15;98.64
10718;BME280;13513;42.700;23.124;2023-02-14T03:47:47;94131.00;;;1.09;99.18
10718;BME280;13513;42.700;23.124;2023-02-14T03:50:19;94131.33;;;1.14;99.07
10718;BME280;13513;42.700;23.124;2023-02-14T03:52:51;94134.76;;;1.15;99.10
10718;BME280;13513;42.700;23.124;2023-02-14T03:55:33;94129.23;;;1.18;98.73
10718;BME280;13513;42.700;23.124;2023-02-14T03:58:19;94127.75;;;1.19;98.61
10718;BME280;13513;42.700;23.124;2023-02-14T04:00:54;94122.22;;;1.14;98.53
10718;BME280;13513;42.700;23.124;2023-02-14T04:03:24;94112.46;;;1.04;98.72
10718;BME280;13513;42.700;23.124;2023-02-14T04:05:57;94106.12;;;1.03;98.64
10718;BME280;13513;42.700;23.124;2023-02-14T04:08:28;94092.76;;;1.06;98.59
10718;BME280;13513;42.700;23.124;2023-02-14T04:11:00;94105.60;;;0.99;98.56
10718;BME280;13513;42.700;23.124;2023-02-14T04:13:34;94106.44;;;1.04;98.55
10718;BME280;13513;42.700;23.124;2023-02-14T04:16:06;94110.18;;;1.05;98.39
10718;BME280;13513;42.700;23.124;2023-02-14T04:18:37;94110.34;;;1.08;98.22
10718;BME280;13513;42.700;23.124;2023-02-14T04:21:24;94103.52;;;1.03;98.14
10718;BME280;13513;42.700;23.124;2023-02-14T04:23:55;94100.08;;;0.98;98.55
10718;BME280;13513;42.700;23.124;2023-02-14T04:26:26;94111.48;;;1.09;98.40
10718;BME280;13513;42.700;23.124;2023-02-14T04:28:57;94108.08;;;1.29;97.42
10718;BME280;13513;42.700;23.124;2023-02-14T04:31:27;94114.94;;;1.42;96.00
10718;BME280;13513;42.700;23.124;2023-02-14T04:33:57;94108.27;;;1.51;95.00
10718;BME280;13513;42.700;23.124;2023-02-14T04:36:28;94114.93;;;1.66;93.54
10718;BME280;13513;42.700;23.124;2023-02-14T04:38:59;94108.25;;;1.75;92.98
10718;BME280;13513;42.700;23.124;2023-02-14T04:41:30;94110.38;;;1.80;92.14
10718;BME280;13513;42.700;23.124;2023-02-14T04:44:01;94113.14;;;1.78;91.35
10718;BME280;13513;42.700;23.124;2023-02-14T04:46:32;94109.38;;;1.81;91.50
10718;BME280;13513;42.700;23.124;2023-02-14T04:49:04;94097.17;;;1.65;92.84
10718;BME280;13513;42.700;23.124;2023-02-14T04:51:35;94087.42;;;1.67;93.13
10718;BME280;13513;42.700;23.124;2023-02-14T04:54:06;94069.05;;;1.53;93.72
10718;BME280;13513;42.700;23.124;2023-02-14T04:56:36;94068.23;;;1.40;94.57
10718;BME280;13513;42.700;23.124;2023-02-14T04:59:07;94070.84;;;1.40;94.52
10718;BME280;13513;42.700;23.124;2023-02-14T05:01:37;94064.97;;;1.34;94.82
10718;BME280;13513;42.700;23.124;2023-02-14T05:04:09;94083.70;;;1.38;94.61
10718;BME280;13513;42.700;23.124;2023-02-14T05:06:39;94084.99;;;1.46;94.63
10718;BME280;13513;42.700;23.124;2023-02-14T05:09:10;94076.03;;;1.56;94.09
10718;BME280;13513;42.700;23.124;2023-02-14T05:11:39;94082.86;;;1.53;94.06
10718;BME280;13513;42.700;23.124;2023-02-14T05:14:10;94080.92;;;1.59;93.58
10718;BME280;13513;42.700;23.124;2023-02-14T05:16:40;94085.47;;;1.53;93.68
10718;BME280;13513;42.700;23.124;2023-02-14T05:19:10;94077.33;;;1.60;92.95
10718;BME280;13513;42.700;23.124;2023-02-14T05:21:44;94084.31;;;1.64;92.71
10718;BME280;13513;42.700;23.124;2023-02-14T05:24:16;94080.25;;;1.65;92.79
10718;BME280;13513;42.700;23.124;2023-02-14T05:26:46;94090.03;;;1.63;93.50
10718;BME280;13513;42.700;23.124;2023-02-14T05:29:17;94086.75;;;1.69;92.84
10718;BME280;13513;42.700;23.124;2023-02-14T05:31:48;94085.61;;;1.64;92.61
10718;BME280;13513;42.700;23.124;2023-02-14T05:34:19;94082.53;;;1.68;92.86
10718;BME280;13513;42.700;23.124;2023-02-14T05:36:49;94072.27;;;1.71;92.12
10718;BME280;13513;42.700;23.124;2023-02-14T05:39:19;94075.69;;;1.75;92.45
10718;BME280;13513;42.700;23.124;2023-02-14T05:41:49;94068.67;;;1.84;92.24
10718;BME280;13513;42.700;23.124;2023-02-14T05:44:20;94079.25;;;1.90;91.29
10718;BME280;13513;42.700;23.124;2023-02-14T05:46:51;94073.22;;;1.86;91.39
10718;BME280;13513;42.700;23.124;2023-02-14T05:49:22;94072.06;;;1.92;91.92
10718;BME280;13513;42.700;23.124;2023-02-14T05:51:53;94069.45;;;1.92;90.84
10718;BME280;13513;42.700;23.124;2023-02-14T05:54:24;94076.81;;;1.85;91.06
10718;BME280;13513;42.700;23.124;2023-02-14T05:56:55;94073.71;;;1.93;91.08
10718;BME280;13513;42.700;23.124;2023-02-14T05:59:25;94071.59;;;1.89;92.12
10718;BME280;13513;42.700;23.124;2023-02-14T06:01:55;94070.13;;;1.90;91.55
10718;BME280;13513;42.700;23.124;2023-02-14T06:04:26;94074.35;;;1.91;91.29
10718;BME280;13513;42.700;23.124;2023-02-14T06:06:56;94073.67;;;2.05;91.33
10718;BME280;13513;42.700;23.124;2023-02-14T06:09:26;94072.34;;;2.13;91.05
10718;BME280;13513;42.700;23.124;2023-02-14T06:11:57;94079.16;;;2.18;90.95
10718;BME280;13513;42.700;23.124;2023-02-14T06:14:27;94080.95;;;2.26;90.34
10718;BME280;13513;42.700;23.124;2023-02-14T06:16:57;94078.16;;;2.31;90.41
10718;BME280;13513;42.700;23.124;2023-02-14T06:19:28;94083.16;;;2.41;90.84
10718;BME280;13513;42.700;23.124;2023-02-14T06:21:59;94093.73;;;2.51;90.49
10718;BME280;13513;42.700;23.124;2023-02-14T06:24:30;94083.28;;;2.55;89.21
10718;BME280;13513;42.700;23.124;2023-02-14T06:27:00;94081.64;;;2.58;89.65
10718;BME280;13513;42.700;23.124;2023-02-14T06:29:31;94084.40;;;2.61;89.20
10718;BME280;13513;42.700;23.124;2023-02-14T06:32:02;94085.70;;;2.61;88.99
10718;BME280;13513;42.700;23.124;2023-02-14T06:34:33;94088.63;;;2.62;88.90
10718;BME280;13513;42.700;23.124;2023-02-14T06:37:04;94085.84;;;2.63;89.74
10718;BME280;13513;42.700;23.124;2023-02-14T06:39:35;94090.18;;;2.75;89.25
10718;BME280;13513;42.700;23.124;2023-02-14T06:42:05;94081.84;;;2.79;88.52
10718;BME280;13513;42.700;23.124;2023-02-14T06:44:36;94079.17;;;2.91;88.41
10718;BME280;13513;42.700;23.124;2023-02-14T06:47:07;94085.89;;;2.86;88.17
10718;BME280;13513;42.700;23.124;2023-02-14T06:49:38;94083.04;;;2.99;88.06
10718;BME280;13513;42.700;23.124;2023-02-14T06:52:09;94091.59;;;3.16;87.14
10718;BME280;13513;42.700;23.124;2023-02-14T06:54:40;94089.55;;;3.30;86.79
10718;BME280;13513;42.700;23.124;2023-02-14T06:57:11;94090.11;;;3.40;86.23
10718;BME280;13513;42.700;23.124;2023-02-14T06:59:41;94086.44;;;3.53;86.54
10718;BME280;13513;42.700;23.124;2023-02-14T07:02:11;94074.41;;;3.44;86.83
10718;BME280;13513;42.700;23.124;2023-02-14T07:04:41;94078.25;;;3.33;87.01
10718;BME280;13513;42.700;23.124;2023-02-14T07:07:14;94080.14;;;3.43;86.81
10718;BME280;13513;42.700;23.124;2023-02-14T07:09:48;94079.39;;;3.53;87.16
10718;BME280;13513;42.700;23.124;2023-02-14T07:12:19;94075.98;;;3.53;87.78
10718;BME280;13513;42.700;23.124;2023-02-14T07:14:50;94071.34;;;3.40;87.68
10718;BME280;13513;42.700;23.124;2023-02-14T07:17:21;94062.81;;;3.24;89.25
10718;BME280;13513;42.700;23.124;2023-02-14T07:19:52;94065.36;;;3.32;89.02
10718;BME280;13513;42.700;23.124;2023-02-14T07:22:25;94071.73;;;3.52;87.83
10718;BME280;13513;42.700;23.124;2023-02-14T07:24:57;94080.49;;;3.59;87.71
10718;BME280;13513;42.700;23.124;2023-02-14T07:27:27;94075.40;;;3.43;87.05
10718;BME280;13513;42.700;23.124;2023-02-14T07:29:57;94075.54;;;3.45;88.20
10718;BME280;13513;42.700;23.124;2023-02-14T07:32:27;94069.01;;;3.45;87.67
10718;BME280;13513;42.700;23.124;2023-02-14T07:34:57;94072.10;;;3.49;88.64
10718;BME280;13513;42.700;23.124;2023-02-14T07:37:30;94065.13;;;3.41;88.54
10718;BME280;13513;42.700;23.124;2023-02-14T07:40:00;94073.50;;;3.33;88.67
10718;BME280;13513;42.700;23.124;2023-02-14T07:42:31;94074.88;;;3.47;88.51
10718;BME280;13513;42.700;23.124;2023-02-14T07:45:02;94068.94;;;3.53;88.75
10718;BME280;13513;42.700;23.124;2023-02-14T07:47:33;94071.45;;;3.47;89.17
10718;BME280;13513;42.700;23.124;2023-02-14T07:50:05;94082.20;;;3.48;88.78
10718;BME280;13513;42.700;23.124;2023-02-14T07:52:35;94074.34;;;3.52;88.88
10718;BME280;13513;42.700;23.124;2023-02-14T07:55:06;94080.56;;;3.51;88.45
10718;BME280;13513;42.700;23.124;2023-02-14T07:57:37;94071.31;;;3.44;88.61
10718;BME280;13513;42.700;23.124;2023-02-14T08:00:11;94081.56;;;3.23;89.98
10718;BME280;13513;42.700;23.124;2023-02-14T08:02:42;94080.89;;;3.29;90.53
10718;BME280;13513;42.700;23.124;2023-02-14T08:05:13;94082.81;;;3.31;90.70
10718;BME280;13513;42.700;23.124;2023-02-14T08:07:44;94081.71;;;3.30;91.46
10718;BME280;13513;42.700;23.124;2023-02-14T08:10:15;94089.92;;;3.23;91.29
10718;BME280;13513;42.700;23.124;2023-02-14T08:12:45;94092.95;;;3.30;91.84
10718;BME280;13513;42.700;23.124;2023-02-14T08:15:32;94095.22;;;3.33;91.64
10718;BME280;13513;42.700;23.124;2023-02-14T08:18:21;94103.34;;;3.38;92.96
10718;BME280;13513;42.700;23.124;2023-02-14T08:20:53;94103.45;;;3.49;92.08
10718;BME280;13513;42.700;23.124;2023-02-14T08:23:24;94099.03;;;3.27;93.17
10718;BME280;13513;42.700;23.124;2023-02-14T08:25:54;94101.52;;;3.20;94.12
10718;BME280;13513;42.700;23.124;2023-02-14T08:28:25;94103.73;;;3.27;94.54
10718;BME280;13513;42.700;23.124;2023-02-14T08:30:56;94110.50;;;3.22;94.96
10718;BME280;13513;42.700;23.124;2023-02-14T08:33:27;94111.27;;;3.26;95.26
10718;BME280;13513;42.700;23.124;2023-02-14T08:35:58;94108.47;;;3.50;94.46
10718;BME280;13513;42.700;23.124;2023-02-14T08:38:30;94104.01;;;3.59;93.48
10718;BME280;13513;42.700;23.124;2023-02-14T08:41:01;94108.92;;;3.58;93.34
10718;BME280;13513;42.700;23.124;2023-02-14T08:43:32;94103.22;;;3.54;93.95
10718;BME280;13513;42.700;23.124;2023-02-14T08:46:03;94101.29;;;3.71;92.99
10718;BME280;13513;42.700;23.124;2023-02-14T08:48:34;94106.86;;;3.49;93.70
10718;BME280;13513;42.700;23.124;2023-02-14T08:51:09;94107.89;;;3.63;94.38
10718;BME280;13513;42.700;23.124;2023-02-14T08:53:40;94111.69;;;3.38;95.31
10718;BME280;13513;42.700;23.124;2023-02-14T08:56:12;94111.52;;;3.39;96.51
10718;BME280;13513;42.700;23.124;2023-02-14T08:58:45;94108.44;;;3.54;96.17
10718;BME280;13513;42.700;23.124;2023-02-14T09:01:16;94113.61;;;3.40;96.04
10718;BME280;13513;42.700;23.124;2023-02-14T09:03:47;94114.02;;;3.29;96.61
10718;BME280;13513;42.700;23.124;2023-02-14T09:06:17;94116.71;;;3.43;97.07
10718;BME280;13513;42.700;23.124;2023-02-14T09:08:47;94111.94;;;3.47;97.11
10718;BME280;13513;42.700;23.124;2023-02-14T09:11:22;94109.84;;;3.42;97.13
10718;BME280;13513;42.700;23.124;2023-02-14T09:13:53;94113.42;;;3.45;97.44
10718;BME280;13513;42.700;23.124;2023-02-14T09:16:24;94110.49;;;3.44;97.58
10718;BME280;13513;42.700;23.124;2023-02-14T09:18:55;94101.58;;;3.35;97.69
10718;BME280;13513;42.700;23.124;2023-02-14T09:21:28;94099.00;;;3.31;97.71
10718;BME280;13513;42.700;23.124;2023-02-14T09:24:05;94087.38;;;3.33;97.40
10718;BME280;13513;42.700;23.124;2023-02-14T09:26:35;94089.62;;;3.40;98.12
10718;BME280;13513;42.700;23.124;2023-02-14T09:29:07;94092.23;;;3.40;97.64
10718;BME280;13513;42.700;23.124;2023-02-14T09:31:37;94090.99;;;3.32;97.83
10718;BME280;13513;42.700;23.124;2023-02-14T09:34:09;94084.64;;;3.31;97.14
10718;BME280;13513;42.700;23.124;2023-02-14T09:36:40;94091.33;;;3.29;96.86
10718;BME280;13513;42.700;23.124;2023-02-14T09:39:11;94088.47;;;3.20;98.33
10718;BME280;13513;42.700;23.124;2023-02-14T09:47:41;94094.31;;;3.49;96.48
10718;BME280;13513;42.700;23.124;2023-02-14T09:50:27;94093.17;;;3.47;96.06
10718;BME280;13513;42.700;23.124;2023-02-14T09:53:05;94088.95;;;3.65;94.35
10718;BME280;13513;42.700;23.124;2023-02-14T09:58:28;94084.27;;;3.56;94.14
10718;BME280;13513;42.700;23.124;2023-02-14T10:01:09;94080.66;;;3.39;93.66
10718;BME280;13513;42.700;23.124;2023-02-14T10:12:26;94066.10;;;3.22;94.77
10718;BME280;13513;42.700;23.124;2023-02-14T10:14:54;94066.70;;;3.28;93.59
10718;BME280;13513;42.700;23.124;2023-02-14T10:17:45;94063.92;;;3.48;93.08
10718;BME280;13513;42.700;23.124;2023-02-14T10:20:29;94050.69;;;3.49;92.25
10718;BME280;13513;42.700;23.124;2023-02-14T10:23:20;94050.69;;;3.49;90.42
10718;BME280;13513;42.700;23.124;2023-02-14T10:25:53;94051.47;;;3.35;90.37
10718;BME280;13513;42.700;23.124;2023-02-14T10:28:29;94064.58;;;3.50;89.82
10718;BME280;13513;42.700;23.124;2023-02-14T10:34:08;94061.70;;;3.78;89.52
10718;BME280;13513;42.700;23.124;2023-02-14T10:36:46;94063.94;;;3.85;87.65
10718;BME280;13513;42.700;23.124;2023-02-14T10:42:05;94051.86;;;3.84;86.83
10718;BME280;13513;42.700;23.124;2023-02-14T10:47:32;94058.14;;;3.56;87.53
10718;BME280;13513;42.700;23.124;2023-02-14T10:50:26;94065.67;;;3.55;88.09
10718;BME280;13513;42.700;23.124;2023-02-14T10:52:55;94059.72;;;3.61;87.89
10718;BME280;13513;42.700;23.124;2023-02-14T10:55:44;94055.27;;;3.84;87.51
10718;BME280;13513;42.700;23.124;2023-02-14T10:58:16;94063.05;;;3.74;86.07
10718;BME280;13513;42.700;23.124;2023-02-14T11:00:52;94062.17;;;3.63;86.44
10718;BME280;13513;42.700;23.124;2023-02-14T11:03:22;94067.22;;;3.64;86.12
10718;BME280;13513;42.700;23.124;2023-02-14T11:05:54;94060.20;;;3.65;86.28
10718;BME280;13513;42.700;23.124;2023-02-14T11:08:37;94060.03;;;3.66;85.79
10718;BME280;13513;42.700;23.124;2023-02-14T11:11:34;94057.53;;;3.50;85.69
10718;BME280;13513;42.700;23.124;2023-02-14T11:14:20;94056.22;;;3.50;86.43
10718;BME280;13513;42.700;23.124;2023-02-14T11:16:41;94047.11;;;3.46;87.06
10718;BME280;13513;42.700;23.124;2023-02-14T11:19:28;94033.47;;;3.40;86.87
10718;BME280;13513;42.700;23.124;2023-02-14T11:21:59;94047.14;;;3.24;87.36
10718;BME280;13513;42.700;23.124;2023-02-14T11:24:36;94049.72;;;3.28;88.96
10718;BME280;13513;42.700;23.124;2023-02-14T11:27:16;94043.64;;;3.31;87.87
10718;BME280;13513;42.700;23.124;2023-02-14T11:29:49;94048.04;;;3.35;87.46
10718;BME280;13513;42.700;23.124;2023-02-14T11:32:26;94044.88;;;3.21;87.46
10718;BME280;13513;42.700;23.124;2023-02-14T11:35:06;94042.64;;;3.36;88.54
10718;BME280;13513;42.700;23.124;2023-02-14T11:37:50;94039.28;;;3.46;87.15
10718;BME280;13513;42.700;23.124;2023-02-14T11:40:34;94038.80;;;3.47;86.95
10718;BME280;13513;42.700;23.124;2023-02-14T11:45:46;94027.06;;;3.61;85.07
10718;BME280;13513;42.700;23.124;2023-02-14T11:51:07;94025.73;;;3.47;84.06
10718;BME280;13513;42.700;23.124;2023-02-14T11:53:50;94023.39;;;3.52;83.77
10718;BME280;13513;42.700;23.124;2023-02-14T11:56:23;94025.83;;;3.53;84.07
10718;BME280;13513;42.700;23.124;2023-02-14T11:58:56;94023.11;;;3.65;82.78
10718;BME280;13513;42.700;23.124;2023-02-14T12:01:29;94019.97;;;3.70;82.62
10718;BME280;13513;42.700;23.124;2023-02-14T12:04:16;94015.23;;;3.69;81.93
10718;BME280;13513;42.700;23.124;2023-02-14T12:06:46;94007.91;;;3.83;82.50
10718;BME280;13513;42.700;23.124;2023-02-14T12:09:26;94006.43;;;3.85;82.17
10718;BME280;13513;42.700;23.124;2023-02-14T12:12:03;93995.33;;;3.83;82.56
10718;BME280;13513;42.700;23.124;2023-02-14T12:14:35;94008.09;;;3.82;83.39
10718;BME280;13513;42.700;23.124;2023-02-14T12:17:29;93991.14;;;3.92;83.57
10718;BME280;13513;42.700;23.124;2023-02-14T12:20:03;93995.48;;;4.00;81.91
10718;BME280;13513;42.700;23.124;2023-02-14T12:22:36;93982.59;;;3.98;82.37
10718;BME280;13513;42.700;23.124;2023-02-14T12:25:15;93988.70;;;3.76;82.71
10718;BME280;13513;42.700;23.124;2023-02-14T12:27:59;93991.83;;;3.76;84.27
10718;BME280;13513;42.700;23.124;2023-02-14T12:30:33;93987.78;;;3.88;84.00
10718;BME280;13513;42.700;23.124;2023-02-14T12:33:18;93982.63;;;4.09;84.18
10718;BME280;13513;42.700;23.124;2023-02-14T12:41:48;93970.36;;;3.95;83.51
10718;BME280;13513;42.700;23.124;2023-02-14T12:44:41;93970.36;;;3.95;83.51
10718;BME280;13513;42.700;23.124;2023-02-14T12:52:40;93964.55;;;4.03;83.52
10718;BME280;13513;42.700;23.124;2023-02-14T13:04:04;93965.42;;;4.00;85.59
10718;BME280;13513;42.700;23.124;2023-02-14T13:06:42;93963.73;;;4.17;85.38
10718;BME280;13513;42.700;23.124;2023-02-14T13:09:24;93973.32;;;4.21;84.13
10718;BME280;13513;42.700;23.124;2023-02-14T13:14:57;93969.02;;;4.13;84.55
10718;BME280;13513;42.700;23.124;2023-02-14T13:22:59;93968.66;;;4.16;85.38
10718;BME280;13513;42.700;23.124;2023-02-14T13:25:38;93965.05;;;4.17;86.03
10718;BME280;13513;42.700;23.124;2023-02-14T13:28:11;93962.75;;;4.04;85.91
10718;BME280;13513;42.700;23.124;2023-02-14T13:30:41;93956.58;;;4.01;86.18
10718;BME280;13513;42.700;23.124;2023-02-14T13:33:29;93962.45;;;4.03;86.35
10718;BME280;13513;42.700;23.124;2023-02-14T13:35:59;93962.45;;;4.03;87.15
10718;BME280;13513;42.700;23.124;2023-02-14T13:38:30;93964.69;;;4.20;85.80
10718;BME280;13513;42.700;23.124;2023-02-14T13:41:02;93954.12;;;4.28;85.80
10718;BME280;13513;42.700;23.124;2023-02-14T13:44:02;93959.70;;;4.25;84.57
10718;BME280;13513;42.700;23.124;2023-02-14T13:49:32;93956.06;;;4.16;85.10
10718;BME280;13513;42.700;23.124;2023-02-14T13:52:08;93952.55;;;4.09;86.59
10718;BME280;13513;42.700;23.124;2023-02-14T13:54:42;93947.81;;;4.23;86.42
10718;BME280;13513;42.700;23.124;2023-02-14T13:57:30;93947.47;;;4.37;86.11
10718;BME280;13513;42.700;23.124;2023-02-14T14:00:34;93951.70;;;4.38;85.26
10718;BME280;13513;42.700;23.124;2023-02-14T14:02:56;93953.88;;;4.34;85.14
10718;BME280;13513;42.700;23.124;2023-02-14T14:10:57;93951.58;;;4.35;83.99
10718;BME280;13513;42.700;23.124;2023-02-14T14:13:58;93951.58;;;4.35;83.99
10718;BME280;13513;42.700;23.124;2023-02-14T14:16:29;93954.60;;;4.28;85.25
10718;BME280;13513;42.700;23.124;2023-02-14T14:21:39;93961.84;;;4.26;85.96
10718;BME280;13513;42.700;23.124;2023-02-14T14:27:21;93947.73;;;4.16;86.45
10718;BME280;13513;42.700;23.124;2023-02-14T14:29:56;93947.02;;;4.08;85.93
10718;BME280;13513;42.700;23.124;2023-02-14T14:32:34;93949.36;;;3.88;86.59
10718;BME280;13513;42.700;23.124;2023-02-14T14:37:49;93947.06;;;3.75;88.08
10718;BME280;13513;42.700;23.124;2023-02-14T14:40:30;93949.11;;;3.69;88.95
10718;BME280;13513;42.700;23.124;2023-02-14T14:46:00;93942.88;;;3.55;89.89
10718;BME280;13513;42.700;23.124;2023-02-14T14:48:48;93938.09;;;3.59;90.39
10718;BME280;13513;42.700;23.124;2023-02-14T14:51:32;93929.64;;;3.71;90.41
10718;BME280;13513;42.700;23.124;2023-02-14T14:54:04;93935.91;;;3.66;90.18
10718;BME280;13513;42.700;23.124;2023-02-14T14:56:47;93930.81;;;3.69;89.92
10718;BME280;13513;42.700;23.124;2023-02-14T15:01:53;93935.75;;;3.64;90.44
10718;BME280;13513;42.700;23.124;2023-02-14T15:04:29;93937.27;;;3.58;90.63
10718;BME280;13513;42.700;23.124;2023-02-14T15:07:19;93931.48;;;3.67;90.99
10718;BME280;13513;42.700;23.124;2023-02-14T15:09:49;93923.02;;;3.65;90.41
10718;BME280;13513;42.700;23.124;2023-02-14T15:12:22;93935.78;;;3.45;91.60
10718;BME280;13513;42.700;23.124;2023-02-14T15:15:10;93934.17;;;3.59;91.52
10718;BME280;13513;42.700;23.124;2023-02-14T15:17:41;93941.40;;;3.57;91.44
10718;BME280;13513;42.700;23.124;2023-02-14T15:20:21;93937.09;;;3.60;91.19
10718;BME280;13513;42.700;23.124;2023-02-14T15:22:53;93943.09;;;3.50;90.54
10718;BME280;13513;42.700;23.124;2023-02-14T15:25:25;93937.41;;;3.46;91.36
10718;BME280;13513;42.700;23.124;2023-02-14T15:27:56;93940.22;;;3.59;89.81
10718;BME280;13513;42.700;23.124;2023-02-14T15:30:33;93924.47;;;3.34;91.02
10718;BME280;13513;42.700;23.124;2023-02-14T15:33:05;93942.17;;;3.28;91.19
10718;BME280;13513;42.700;23.124;2023-02-14T15:35:38;93947.63;;;3.37;91.16
10718;BME280;13513;42.700;23.124;2023-02-14T15:38:09;93951.94;;;3.45;90.89